sensor_id;sensor_type;location;lat;lon;timestamp;pressure;altitude;pressure_sealevel;temperature;humidity
11936;BME280;6027;48.576;9.180;2022-07-23T00:00:05;96922.34;;;21.62;100.00
11936;BME280;6027;48.576;9.180;2022-07-23T00:02:31;96912.31;;;21.79;100.00
11936;BME280;6027;48.576;9.180;2022-07-23T00:04:56;96922.41;;;21.89;100.00
11936;BME280;6027;48.576;9.180;2022-07-23T00:07:22;96938.84;;;21.87;100.00
11936;BME280;6027;48.576;9.180;2022-07-23T00:09:47;96947.50;;;21.89;100.00
11936;BME280;6027;48.576;9.180;2022-07-23T00:12:13;96952.63;;;21.91;100.00
11936;BME280;6027;48.576;9.180;2022-07-23T00:14:38;96937.41;;;22.01;100.00
11936;BME280;6027;48.576;9.180;2022-07-23T00:17:03;96920.28;;;22.13;100.00
11936;BME280;6027;48.576;9.180;2022-07-23T00:19:29;96909.84;;;22.21;100.00
11936;BME280;6027;48.576;9.180;2022-07-23T00:21:54;96898.06;;;22.32;100.00
11936;BME280;6027;48.576;9.180;2022-07-23T00:24:20;96885.13;;;22.34;100.00
11936;BME280;6027;48.576;9.180;2022-07-23T00:26:46;96903.81;;;22.41;100.00
11936;BME280;6027;48.576;9.180;2022-07-23T00:29:11;96907.31;;;22.42;100.00
11936;BME280;6027;48.576;9.180;2022-07-23T00:31:37;96913.91;;;22.51;100.00
11936;BME280;6027;48.576;9.180;2022-07-23T00:34:03;96902.28;;;22.50;100.00
11936;BME280;6027;48.576;9.180;2022-07-23T00:36:28;96904.41;;;22.48;100.00
11936;BME280;6027;48.576;9.180;2022-07-23T00:38:54;96899.88;;;22.54;100.00
11936;BME280;6027;48.576;9.180;2022-07-23T00:41:20;96893.88;;;22.47;100.00
11936;BME280;6027;48.576;9.180;2022-07-23T00:43:45;96909.31;;;22.24;100.00
11936;BME280;6027;48.576;9.180;2022-07-23T00:46:11;96887.63;;;22.09;100.00
11936;BME280;6027;48.576;9.180;2022-07-23T00:48:36;96905.63;;;22.03;100.00
11936;BME280;6027;48.576;9.180;2022-07-23T00:51:02;96914.00;;;21.85;100.00
11936;BME280;6027;48.576;9.180;2022-07-23T00:53:28;96899.34;;;21.76;100.00
11936;BME280;6027;48.576;9.180;2022-07-23T00:55:54;96908.22;;;21.71;100.00
11936;BME280;6027;48.576;9.180;2022-07-23T00:58:19;96905.59;;;21.55;100.00
11936;BME280;6027;48.576;9.180;2022-07-23T01:00:45;96897.78;;;21.36;100.00
11936;BME280;6027;48.576;9.180;2022-07-23T01:03:11;96891.97;;;21.23;100.00
11936;BME280;6027;48.576;9.180;2022-07-23T01:05:37;96884.06;;;21.16;100.00
11936;BME280;6027;48.576;9.180;2022-07-23T01:08:02;96890.72;;;21.30;100.00
11936;BME280;6027;48.576;9.180;2022-07-23T01:10:28;96906.31;;;21.28;100.00
11936;BME280;6027;48.576;9.180;2022-07-23T01:13:04;96886.28;;;21.41;100.00
11936;BME280;6027;48.576;9.180;2022-07-23T01:15:31;96892.53;;;21.25;100.00
11936;BME280;6027;48.576;9.180;2022-07-23T01:17:57;96885.28;;;21.25;100.00
11936;BME280;6027;48.576;9.180;2022-07-23T01:20:22;96877.59;;;21.34;100.00
11936;BME280;6027;48.576;9.180;2022-07-23T01:22:48;96863.34;;;21.38;100.00
11936;BME280;6027;48.576;9.180;2022-07-23T01:25:14;96860.22;;;21.47;100.00
11936;BME280;6027;48.576;9.180;2022-07-23T01:27:40;96868.22;;;21.42;100.00
11936;BME280;6027;48.576;9.180;2022-07-23T01:30:06;96851.13;;;21.53;100.00
11936;BME280;6027;48.576;9.180;2022-07-23T01:32:31;96822.66;;;21.62;100.00
11936;BME280;6027;48.576;9.180;2022-07-23T01:34:57;96803.38;;;21.75;100.00
11936;BME280;6027;48.576;9.180;2022-07-23T01:37:22;96792.41;;;21.82;100.00
11936;BME280;6027;48.576;9.180;2022-07-23T01:39:48;96784.06;;;21.83;100.00
11936;BME280;6027;48.576;9.180;2022-07-23T01:42:13;96787.94;;;21.92;100.00
11936;BME280;6027;48.576;9.180;2022-07-23T01:44:39;96790.06;;;21.90;100.00
11936;BME280;6027;48.576;9.180;2022-07-23T01:47:05;96813.84;;;21.93;100.00
11936;BME280;6027;48.576;9.180;2022-07-23T01:49:31;96837.31;;;21.98;100.00
11936;BME280;6027;48.576;9.180;2022-07-23T01:51:56;96836.47;;;21.92;100.00
11936;BME280;6027;48.576;9.180;2022-07-23T01:54:30;96853.03;;;21.79;100.00
11936;BME280;6027;48.576;9.180;2022-07-23T01:56:56;96860.34;;;21.84;100.00
11936;BME280;6027;48.576;9.180;2022-07-23T01:59:22;96849.38;;;21.90;100.00
11936;BME280;6027;48.576;9.180;2022-07-23T02:01:48;96871.69;;;21.86;100.00
11936;BME280;6027;48.576;9.180;2022-07-23T02:04:17;96857.72;;;21.89;100.00
11936;BME280;6027;48.576;9.180;2022-07-23T02:06:42;96854.47;;;21.87;100.00
11936;BME280;6027;48.576;9.180;2022-07-23T02:09:07;96850.69;;;21.88;100.00
11936;BME280;6027;48.576;9.180;2022-07-23T02:11:33;96857.72;;;21.89;100.00
11936;BME280;6027;48.576;9.180;2022-07-23T02:13:59;96858.06;;;21.97;100.00
11936;BME280;6027;48.576;9.180;2022-07-23T02:16:24;96873.97;;;21.99;100.00
11936;BME280;6027;48.576;9.180;2022-07-23T02:18:50;96886.28;;;21.63;100.00
11936;BME280;6027;48.576;9.180;2022-07-23T02:21:15;96893.28;;;21.42;100.00
11936;BME280;6027;48.576;9.180;2022-07-23T02:23:41;96907.75;;;21.19;100.00
11936;BME280;6027;48.576;9.180;2022-07-23T02:26:06;96915.97;;;21.08;100.00
11936;BME280;6027;48.576;9.180;2022-07-23T02:28:32;96905.72;;;20.88;100.00
11936;BME280;6027;48.576;9.180;2022-07-23T02:30:57;96918.34;;;20.87;100.00
11936;BME280;6027;48.576;9.180;2022-07-23T02:33:23;96927.91;;;20.95;100.00
11936;BME280;6027;48.576;9.180;2022-07-23T02:35:49;96925.13;;;20.90;100.00
11936;BME280;6027;48.576;9.180;2022-07-23T02:38:14;96923.25;;;20.90;100.00
11936;BME280;6027;48.576;9.180;2022-07-23T02:40:40;96925.84;;;20.85;100.00
11936;BME280;6027;48.576;9.180;2022-07-23T02:43:05;96929.34;;;21.02;100.00
11936;BME280;6027;48.576;9.180;2022-07-23T02:45:31;96938.63;;;21.12;100.00
11936;BME280;6027;48.576;9.180;2022-07-23T02:47:56;96931.78;;;21.21;100.00
11936;BME280;6027;48.576;9.180;2022-07-23T02:50:22;96938.88;;;21.27;100.00
11936;BME280;6027;48.576;9.180;2022-07-23T02:52:48;96945.56;;;21.24;100.00
11936;BME280;6027;48.576;9.180;2022-07-23T02:55:13;96939.47;;;21.12;100.00
11936;BME280;6027;48.576;9.180;2022-07-23T02:57:38;96933.91;;;21.02;100.00
11936;BME280;6027;48.576;9.180;2022-07-23T03:00:05;96939.50;;;21.17;100.00
11936;BME280;6027;48.576;9.180;2022-07-23T03:02:31;96948.84;;;21.26;100.00
11936;BME280;6027;48.576;9.180;2022-07-23T03:04:57;96959.44;;;21.33;100.00
11936;BME280;6027;48.576;9.180;2022-07-23T03:07:22;96947.38;;;21.35;100.00
11936;BME280;6027;48.576;9.180;2022-07-23T03:09:48;96947.72;;;21.44;100.00
11936;BME280;6027;48.576;9.180;2022-07-23T03:12:13;96946.91;;;21.44;100.00
11936;BME280;6027;48.576;9.180;2022-07-23T03:14:39;96944.88;;;21.51;100.00
11936;BME280;6027;48.576;9.180;2022-07-23T03:17:05;96943.22;;;21.50;100.00
11936;BME280;6027;48.576;9.180;2022-07-23T03:19:30;96947.06;;;21.54;100.00
11936;BME280;6027;48.576;9.180;2022-07-23T03:21:56;96953.75;;;21.51;100.00
11936;BME280;6027;48.576;9.180;2022-07-23T03:24:21;96953.19;;;21.49;100.00
11936;BME280;6027;48.576;9.180;2022-07-23T03:26:49;96948.88;;;21.48;100.00
11936;BME280;6027;48.576;9.180;2022-07-23T03:29:15;96959.97;;;21.52;100.00
11936;BME280;6027;48.576;9.180;2022-07-23T03:31:40;96960.63;;;21.42;100.00
11936;BME280;6027;48.576;9.180;2022-07-23T03:34:05;96959.31;;;21.45;100.00
11936;BME280;6027;48.576;9.180;2022-07-23T03:36:31;96952.13;;;21.50;100.00
11936;BME280;6027;48.576;9.180;2022-07-23T03:38:56;96948.69;;;21.55;100.00
11936;BME280;6027;48.576;9.180;2022-07-23T03:41:22;96938.09;;;21.48;100.00
11936;BME280;6027;48.576;9.180;2022-07-23T03:43:47;96921.69;;;21.50;100.00
11936;BME280;6027;48.576;9.180;2022-07-23T03:46:13;96927.63;;;21.52;100.00
11936;BME280;6027;48.576;9.180;2022-07-23T03:48:38;96933.53;;;21.49;100.00
11936;BME280;6027;48.576;9.180;2022-07-23T03:51:04;96939.31;;;21.41;100.00
11936;BME280;6027;48.576;9.180;2022-07-23T03:53:29;96941.44;;;21.38;100.00
11936;BME280;6027;48.576;9.180;2022-07-23T03:55:55;96948.09;;;21.31;100.00
11936;BME280;6027;48.576;9.180;2022-07-23T03:58:20;96951.78;;;21.25;100.00
11936;BME280;6027;48.576;9.180;2022-07-23T04:00:46;96964.19;;;21.26;100.00
11936;BME280;6027;48.576;9.180;2022-07-23T04:03:12;96969.66;;;21.31;100.00
11936;BME280;6027;48.576;9.180;2022-07-23T04:05:39;96972.34;;;21.14;100.00
11936;BME280;6027;48.576;9.180;2022-07-23T04:08:05;96976.00;;;21.08;100.00
11936;BME280;6027;48.576;9.180;2022-07-23T04:10:44;96966.88;;;20.92;100.00
11936;BME280;6027;48.576;9.180;2022-07-23T04:13:33;96951.88;;;20.80;100.00
11936;BME280;6027;48.576;9.180;2022-07-23T04:16:19;96966.88;;;20.59;100.00
11936;BME280;6027;48.576;9.180;2022-07-23T04:18:52;96969.53;;;20.42;100.00
11936;BME280;6027;48.576;9.180;2022-07-23T04:21:31;96970.34;;;20.59;100.00
11936;BME280;6027;48.576;9.180;2022-07-23T04:24:06;96962.47;;;20.53;100.00
11936;BME280;6027;48.576;9.180;2022-07-23T04:26:32;96974.78;;;20.65;100.00
11936;BME280;6027;48.576;9.180;2022-07-23T04:28:57;96971.13;;;20.72;100.00
11936;BME280;6027;48.576;9.180;2022-07-23T04:31:23;96978.13;;;20.73;100.00
11936;BME280;6027;48.576;9.180;2022-07-23T04:33:48;96979.19;;;20.72;100.00
11936;BME280;6027;48.576;9.180;2022-07-23T04:36:14;96978.47;;;20.76;100.00
11936;BME280;6027;48.576;9.180;2022-07-23T04:38:40;96974.38;;;20.74;100.00
11936;BME280;6027;48.576;9.180;2022-07-23T04:41:05;96984.50;;;20.83;100.00
11936;BME280;6027;48.576;9.180;2022-07-23T04:43:31;96984.00;;;20.86;100.00
11936;BME280;6027;48.576;9.180;2022-07-23T04:45:56;96975.69;;;20.88;100.00
11936;BME280;6027;48.576;9.180;2022-07-23T04:48:21;96969.72;;;20.86;100.00
11936;BME280;6027;48.576;9.180;2022-07-23T04:50:47;96976.50;;;20.88;100.00
11936;BME280;6027;48.576;9.180;2022-07-23T04:53:12;96975.13;;;20.86;100.00
11936;BME280;6027;48.576;9.180;2022-07-23T04:55:38;96975.34;;;20.67;100.00
11936;BME280;6027;48.576;9.180;2022-07-23T04:58:04;96973.91;;;20.77;100.00
11936;BME280;6027;48.576;9.180;2022-07-23T05:00:29;96975.78;;;20.76;100.00
11936;BME280;6027;48.576;9.180;2022-07-23T05:02:54;96974.38;;;20.74;100.00
11936;BME280;6027;48.576;9.180;2022-07-23T05:05:20;96974.28;;;20.68;100.00
11936;BME280;6027;48.576;9.180;2022-07-23T05:07:46;96987.50;;;20.70;100.00
11936;BME280;6027;48.576;9.180;2022-07-23T05:10:11;97001.22;;;20.40;100.00
11936;BME280;6027;48.576;9.180;2022-07-23T05:12:37;96991.03;;;20.42;100.00
11936;BME280;6027;48.576;9.180;2022-07-23T05:15:02;96988.22;;;20.49;100.00
11936;BME280;6027;48.576;9.180;2022-07-23T05:17:28;96986.91;;;20.51;100.00
11936;BME280;6027;48.576;9.180;2022-07-23T05:19:53;96991.09;;;20.59;100.00
11936;BME280;6027;48.576;9.180;2022-07-23T05:22:19;96990.81;;;20.60;100.00
11936;BME280;6027;48.576;9.180;2022-07-23T05:24:44;96984.16;;;20.63;100.00
11936;BME280;6027;48.576;9.180;2022-07-23T05:27:10;96977.94;;;20.62;100.00
11936;BME280;6027;48.576;9.180;2022-07-23T05:29:35;96976.66;;;20.65;100.00
11936;BME280;6027;48.576;9.180;2022-07-23T05:32:00;96965.56;;;20.61;100.00
11936;BME280;6027;48.576;9.180;2022-07-23T05:34:26;96970.06;;;20.56;100.00
11936;BME280;6027;48.576;9.180;2022-07-23T05:36:51;96978.91;;;20.40;100.00
11936;BME280;6027;48.576;9.180;2022-07-23T05:39:17;96985.94;;;20.29;100.00
11936;BME280;6027;48.576;9.180;2022-07-23T05:41:43;96986.03;;;20.34;100.00
11936;BME280;6027;48.576;9.180;2022-07-23T05:44:08;96988.13;;;20.44;100.00
11936;BME280;6027;48.576;9.180;2022-07-23T05:46:33;96993.50;;;20.44;100.00
11936;BME280;6027;48.576;9.180;2022-07-23T05:48:59;96982.13;;;20.53;100.00
11936;BME280;6027;48.576;9.180;2022-07-23T05:51:25;96982.38;;;20.68;100.00
11936;BME280;6027;48.576;9.180;2022-07-23T05:53:51;96993.13;;;20.68;100.00
11936;BME280;6027;48.576;9.180;2022-07-23T05:56:17;96988.56;;;20.69;100.00
11936;BME280;6027;48.576;9.180;2022-07-23T05:58:43;96983.19;;;20.69;100.00
11936;BME280;6027;48.576;9.180;2022-07-23T06:01:09;96988.22;;;20.65;100.00
11936;BME280;6027;48.576;9.180;2022-07-23T06:03:35;96988.56;;;20.52;100.00
11936;BME280;6027;48.576;9.180;2022-07-23T06:06:00;96988.31;;;20.54;100.00
11936;BME280;6027;48.576;9.180;2022-07-23T06:08:26;96986.91;;;20.51;100.00
11936;BME280;6027;48.576;9.180;2022-07-23T06:10:51;96985.38;;;20.55;100.00
11936;BME280;6027;48.576;9.180;2022-07-23T06:13:17;96984.34;;;20.73;100.00
11936;BME280;6027;48.576;9.180;2022-07-23T06:15:43;96981.75;;;20.78;100.00
11936;BME280;6027;48.576;9.180;2022-07-23T06:18:09;96977.56;;;20.87;100.00
11936;BME280;6027;48.576;9.180;2022-07-23T06:20:34;96972.03;;;20.94;100.00
11936;BME280;6027;48.576;9.180;2022-07-23T06:23:00;96960.50;;;20.98;100.00
11936;BME280;6027;48.576;9.180;2022-07-23T06:25:25;96965.22;;;21.08;100.00
11936;BME280;6027;48.576;9.180;2022-07-23T06:27:51;96956.66;;;21.11;100.00
11936;BME280;6027;48.576;9.180;2022-07-23T06:30:17;96962.13;;;21.16;100.00
11936;BME280;6027;48.576;9.180;2022-07-23T06:32:47;96966.78;;;21.21;100.00
11936;BME280;6027;48.576;9.180;2022-07-23T06:35:13;96982.59;;;21.17;100.00
11936;BME280;6027;48.576;9.180;2022-07-23T06:37:39;96983.09;;;21.14;100.00
11936;BME280;6027;48.576;9.180;2022-07-23T06:40:05;96987.34;;;21.27;100.00
11936;BME280;6027;48.576;9.180;2022-07-23T06:42:31;96992.00;;;21.31;100.00
11936;BME280;6027;48.576;9.180;2022-07-23T06:44:56;96981.56;;;21.35;100.00
11936;BME280;6027;48.576;9.180;2022-07-23T06:47:22;96983.31;;;21.46;100.00
11936;BME280;6027;48.576;9.180;2022-07-23T06:49:48;96982.00;;;21.49;100.00
11936;BME280;6027;48.576;9.180;2022-07-23T06:52:13;96993.94;;;21.53;100.00
11936;BME280;6027;48.576;9.180;2022-07-23T06:54:39;96989.88;;;21.55;100.00
11936;BME280;6027;48.576;9.180;2022-07-23T06:57:04;96997.72;;;21.57;100.00
11936;BME280;6027;48.576;9.180;2022-07-23T06:59:30;96998.28;;;21.59;100.00
11936;BME280;6027;48.576;9.180;2022-07-23T07:01:55;97003.59;;;21.70;100.00
11936;BME280;6027;48.576;9.180;2022-07-23T07:04:22;97014.94;;;21.73;100.00
11936;BME280;6027;48.576;9.180;2022-07-23T07:06:47;97015.63;;;21.85;100.00
11936;BME280;6027;48.576;9.180;2022-07-23T07:09:13;97017.59;;;21.89;100.00
11936;BME280;6027;48.576;9.180;2022-07-23T07:11:38;97026.63;;;22.00;100.00
11936;BME280;6027;48.576;9.180;2022-07-23T07:14:04;97017.09;;;21.92;100.00
11936;BME280;6027;48.576;9.180;2022-07-23T07:16:29;97022.06;;;22.00;100.00
11936;BME280;6027;48.576;9.180;2022-07-23T07:18:55;97025.94;;;22.10;100.00
11936;BME280;6027;48.576;9.180;2022-07-23T07:21:20;97024.91;;;22.16;100.00
11936;BME280;6027;48.576;9.180;2022-07-23T07:23:46;97021.53;;;22.25;100.00
11936;BME280;6027;48.576;9.180;2022-07-23T07:26:11;97021.34;;;22.32;100.00
11936;BME280;6027;48.576;9.180;2022-07-23T07:28:37;97005.72;;;22.34;100.00
11936;BME280;6027;48.576;9.180;2022-07-23T07:31:02;97013.59;;;22.40;100.00
11936;BME280;6027;48.576;9.180;2022-07-23T07:33:28;97020.94;;;22.45;100.00
11936;BME280;6027;48.576;9.180;2022-07-23T07:35:54;97027.50;;;22.54;100.00
11936;BME280;6027;48.576;9.180;2022-07-23T07:38:19;97030.00;;;22.61;100.00
11936;BME280;6027;48.576;9.180;2022-07-23T07:40:45;97033.84;;;22.65;100.00
11936;BME280;6027;48.576;9.180;2022-07-23T07:43:10;97029.31;;;22.70;100.00
11936;BME280;6027;48.576;9.180;2022-07-23T07:45:36;97040.28;;;22.86;100.00
11936;BME280;6027;48.576;9.180;2022-07-23T07:48:02;97040.78;;;22.83;100.00
11936;BME280;6027;48.576;9.180;2022-07-23T07:50:28;97043.53;;;22.88;100.00
11936;BME280;6027;48.576;9.180;2022-07-23T07:52:53;97054.66;;;22.96;100.00
11936;BME280;6027;48.576;9.180;2022-07-23T07:55:19;97056.84;;;22.99;100.00
11936;BME280;6027;48.576;9.180;2022-07-23T07:57:44;97048.44;;;22.96;100.00
11936;BME280;6027;48.576;9.180;2022-07-23T08:00:10;97058.53;;;23.05;100.00
11936;BME280;6027;48.576;9.180;2022-07-23T08:02:43;97067.53;;;23.16;100.00
11936;BME280;6027;48.576;9.180;2022-07-23T08:05:09;97061.63;;;23.19;100.00
11936;BME280;6027;48.576;9.180;2022-07-23T08:07:35;97072.22;;;23.26;100.00
11936;BME280;6027;48.576;9.180;2022-07-23T08:10:00;97066.06;;;23.35;100.00
11936;BME280;6027;48.576;9.180;2022-07-23T08:12:26;97072.03;;;23.37;100.00
11936;BME280;6027;48.576;9.180;2022-07-23T08:14:51;97070.44;;;23.41;100.00
11936;BME280;6027;48.576;9.180;2022-07-23T08:17:18;97069.94;;;23.45;100.00
11936;BME280;6027;48.576;9.180;2022-07-23T08:19:43;97067.25;;;23.50;100.00
11936;BME280;6027;48.576;9.180;2022-07-23T08:22:08;97069.47;;;23.53;100.00
11936;BME280;6027;48.576;9.180;2022-07-23T08:24:34;97064.66;;;23.60;100.00
11936;BME280;6027;48.576;9.180;2022-07-23T08:26:59;97066.84;;;23.63;100.00
11936;BME280;6027;48.576;9.180;2022-07-23T08:29:25;97052.84;;;23.76;100.00
11936;BME280;6027;48.576;9.180;2022-07-23T08:34:16;97057.72;;;23.74;100.00
11936;BME280;6027;48.576;9.180;2022-07-23T08:36:41;97055.91;;;23.85;100.00
11936;BME280;6027;48.576;9.180;2022-07-23T08:39:07;97066.72;;;23.85;100.00
11936;BME280;6027;48.576;9.180;2022-07-23T08:41:33;97066.50;;;23.96;100.00
11936;BME280;6027;48.576;9.180;2022-07-23T08:43:59;97067.34;;;24.02;100.00
11936;BME280;6027;48.576;9.180;2022-07-23T08:46:26;97073.53;;;23.97;100.00
11936;BME280;6027;48.576;9.180;2022-07-23T08:48:54;97075.16;;;23.98;100.00
11936;BME280;6027;48.576;9.180;2022-07-23T08:51:20;97071.63;;;23.98;100.00
11936;BME280;6027;48.576;9.180;2022-07-23T08:53:46;97082.72;;;23.96;100.00
11936;BME280;6027;48.576;9.180;2022-07-23T08:56:12;97081.88;;;23.91;100.00
11936;BME280;6027;48.576;9.180;2022-07-23T08:58:37;97081.56;;;23.87;100.00
11936;BME280;6027;48.576;9.180;2022-07-23T09:01:03;97072.38;;;23.88;100.00
11936;BME280;6027;48.576;9.180;2022-07-23T09:03:34;97064.56;;;23.92;100.00
11936;BME280;6027;48.576;9.180;2022-07-23T09:06:01;97068.69;;;23.99;100.00
11936;BME280;6027;48.576;9.180;2022-07-23T09:11:00;97056.00;;;24.05;100.00
11936;BME280;6027;48.576;9.180;2022-07-23T09:13:33;97056.25;;;24.08;100.00
11936;BME280;6027;48.576;9.180;2022-07-23T09:16:02;97046.50;;;24.07;100.00
11936;BME280;6027;48.576;9.180;2022-07-23T09:18:30;97039.25;;;24.13;100.00
11936;BME280;6027;48.576;9.180;2022-07-23T09:21:08;97052.31;;;24.26;100.00
11936;BME280;6027;48.576;9.180;2022-07-23T09:23:44;97059.31;;;24.22;100.00
11936;BME280;6027;48.576;9.180;2022-07-23T09:26:28;97055.00;;;24.26;100.00
11936;BME280;6027;48.576;9.180;2022-07-23T09:29:04;97050.13;;;24.23;100.00
11936;BME280;6027;48.576;9.180;2022-07-23T09:31:33;97055.28;;;24.25;100.00
11936;BME280;6027;48.576;9.180;2022-07-23T09:34:23;97056.38;;;24.24;100.00
11936;BME280;6027;48.576;9.180;2022-07-23T09:36:52;97053.44;;;24.35;100.00
11936;BME280;6027;48.576;9.180;2022-07-23T09:39:29;97051.56;;;24.46;100.00
11936;BME280;6027;48.576;9.180;2022-07-23T09:41:56;97055.91;;;24.42;100.00
11936;BME280;6027;48.576;9.180;2022-07-23T09:44:22;97055.91;;;24.47;100.00
11936;BME280;6027;48.576;9.180;2022-07-23T09:46:50;97049.16;;;24.55;100.00
11936;BME280;6027;48.576;9.180;2022-07-23T09:49:21;97049.97;;;24.65;100.00
11936;BME280;6027;48.576;9.180;2022-07-23T09:54:29;97044.56;;;24.65;100.00
11936;BME280;6027;48.576;9.180;2022-07-23T09:56:58;97055.16;;;24.62;100.00
11936;BME280;6027;48.576;9.180;2022-07-23T09:59:29;97050.47;;;24.37;100.00
11936;BME280;6027;48.576;9.180;2022-07-23T10:01:56;97046.97;;;24.47;100.00
11936;BME280;6027;48.576;9.180;2022-07-23T10:04:24;97045.09;;;24.57;100.00
11936;BME280;6027;48.576;9.180;2022-07-23T10:06:53;97048.34;;;24.64;100.00
11936;BME280;6027;48.576;9.180;2022-07-23T10:09:23;97058.16;;;24.81;100.00
11936;BME280;6027;48.576;9.180;2022-07-23T10:11:50;97053.00;;;24.89;100.00
11936;BME280;6027;48.576;9.180;2022-07-23T10:14:16;97055.19;;;24.92;100.00
11936;BME280;6027;48.576;9.180;2022-07-23T10:16:42;97057.13;;;25.07;100.00
11936;BME280;6027;48.576;9.180;2022-07-23T10:19:08;97048.19;;;24.96;100.00
11936;BME280;6027;48.576;9.180;2022-07-23T10:21:46;97038.16;;;24.97;100.00
11936;BME280;6027;48.576;9.180;2022-07-23T10:24:21;97040.31;;;24.95;100.00
11936;BME280;6027;48.576;9.180;2022-07-23T10:29:55;97044.66;;;25.16;100.00
11936;BME280;6027;48.576;9.180;2022-07-23T10:37:47;97056.84;;;25.34;97.28
11936;BME280;6027;48.576;9.180;2022-07-23T10:40:18;97053.84;;;25.40;100.00
11936;BME280;6027;48.576;9.180;2022-07-23T10:42:47;97049.53;;;25.39;96.60
11936;BME280;6027;48.576;9.180;2022-07-23T10:45:24;97044.09;;;25.44;96.40
11936;BME280;6027;48.576;9.180;2022-07-23T10:47:51;97043.81;;;25.46;98.12
11936;BME280;6027;48.576;9.180;2022-07-23T10:50:27;97046.28;;;25.47;100.00
11936;BME280;6027;48.576;9.180;2022-07-23T10:53:15;97036.25;;;25.38;100.00
11936;BME280;6027;48.576;9.180;2022-07-23T10:55:45;97051.41;;;25.49;98.94
11936;BME280;6027;48.576;9.180;2022-07-23T10:58:18;97050.34;;;25.45;94.01
11936;BME280;6027;48.576;9.180;2022-07-23T11:00:44;97039.53;;;25.15;97.50
11936;BME280;6027;48.576;9.180;2022-07-23T11:03:32;97039.25;;;25.11;100.00
11936;BME280;6027;48.576;9.180;2022-07-23T11:06:01;97046.28;;;24.97;100.00
11936;BME280;6027;48.576;9.180;2022-07-23T11:08:26;97037.34;;;24.96;100.00
11936;BME280;6027;48.576;9.180;2022-07-23T11:11:07;97033.56;;;24.97;100.00
11936;BME280;6027;48.576;9.180;2022-07-23T11:13:41;97029.78;;;24.98;100.00
11936;BME280;6027;48.576;9.180;2022-07-23T11:24:14;97045.47;;;25.22;98.34
11936;BME280;6027;48.576;9.180;2022-07-23T11:32:05;97038.38;;;25.61;84.24
11936;BME280;6027;48.576;9.180;2022-07-23T11:34:42;97045.72;;;25.66;91.58
11936;BME280;6027;48.576;9.180;2022-07-23T11:37:10;97045.72;;;25.66;87.13
11936;BME280;6027;48.576;9.180;2022-07-23T11:39:38;97044.91;;;25.65;85.50
11936;BME280;6027;48.576;9.180;2022-07-23T11:42:06;97053.31;;;25.64;75.29
11936;BME280;6027;48.576;9.180;2022-07-23T11:44:36;97040.31;;;25.66;81.22
11936;BME280;6027;48.576;9.180;2022-07-23T11:47:08;97043.00;;;25.76;75.25
11936;BME280;6027;48.576;9.180;2022-07-23T11:49:35;97032.41;;;25.79;83.02
11936;BME280;6027;48.576;9.180;2022-07-23T11:52:09;97039.44;;;25.91;85.19
11936;BME280;6027;48.576;9.180;2022-07-23T11:54:46;97041.88;;;25.97;77.69
11936;BME280;6027;48.576;9.180;2022-07-23T11:57:12;97027.19;;;25.98;81.69
11936;BME280;6027;48.576;9.180;2022-07-23T11:59:38;97027.41;;;26.12;79.60
11936;BME280;6027;48.576;9.180;2022-07-23T12:02:06;97024.97;;;26.15;78.14
11936;BME280;6027;48.576;9.180;2022-07-23T12:04:45;97021.66;;;26.29;71.69
11936;BME280;6027;48.576;9.180;2022-07-23T12:07:27;97022.75;;;26.33;62.66
11936;BME280;6027;48.576;9.180;2022-07-23T12:09:54;97019.44;;;26.41;64.75
11936;BME280;6027;48.576;9.180;2022-07-23T12:12:20;97014.50;;;26.53;64.08
11936;BME280;6027;48.576;9.180;2022-07-23T12:14:57;97016.69;;;26.51;62.57
11936;BME280;6027;48.576;9.180;2022-07-23T12:17:28;97014.97;;;26.60;65.33
11936;BME280;6027;48.576;9.180;2022-07-23T12:19:56;97009.53;;;26.60;71.30
11936;BME280;6027;48.576;9.180;2022-07-23T12:22:23;97015.53;;;26.57;68.90
11936;BME280;6027;48.576;9.180;2022-07-23T12:25:02;97017.13;;;26.63;62.08
11936;BME280;6027;48.576;9.180;2022-07-23T12:27:30;97010.06;;;26.67;58.90
11936;BME280;6027;48.576;9.180;2022-07-23T12:29:55;97014.94;;;26.70;56.13
11936;BME280;6027;48.576;9.180;2022-07-23T12:32:28;97010.31;;;26.71;58.48
11936;BME280;6027;48.576;9.180;2022-07-23T12:35:08;97012.16;;;26.75;63.83
11936;BME280;6027;48.576;9.180;2022-07-23T12:37:36;97014.28;;;26.83;62.43
11936;BME280;6027;48.576;9.180;2022-07-23T12:46:15;97021.13;;;26.76;59.88
11936;BME280;6027;48.576;9.180;2022-07-23T12:51:16;97017.03;;;26.78;59.89
11936;BME280;6027;48.576;9.180;2022-07-23T12:53:44;97009.22;;;26.72;60.33
11936;BME280;6027;48.576;9.180;2022-07-23T12:56:19;97016.00;;;26.69;62.62
11936;BME280;6027;48.576;9.180;2022-07-23T12:58:47;97014.56;;;26.82;56.65
11936;BME280;6027;48.576;9.180;2022-07-23T13:04:11;97015.25;;;26.59;61.45
11936;BME280;6027;48.576;9.180;2022-07-23T13:06:39;97013.59;;;26.63;58.68
11936;BME280;6027;48.576;9.180;2022-07-23T13:09:07;97016.31;;;26.63;58.18
11936;BME280;6027;48.576;9.180;2022-07-23T13:11:34;97009.25;;;26.62;55.58
11936;BME280;6027;48.576;9.180;2022-07-23T13:14:00;97015.22;;;26.64;55.89
11936;BME280;6027;48.576;9.180;2022-07-23T13:16:30;97024.22;;;26.59;56.69
11936;BME280;6027;48.576;9.180;2022-07-23T13:18:57;97030.19;;;26.56;60.29
11936;BME280;6027;48.576;9.180;2022-07-23T13:21:23;97033.50;;;26.53;57.00
11936;BME280;6027;48.576;9.180;2022-07-23T13:23:49;97035.94;;;26.55;58.66
11936;BME280;6027;48.576;9.180;2022-07-23T13:26:14;97038.34;;;26.56;56.20
11936;BME280;6027;48.576;9.180;2022-07-23T13:28:40;97036.41;;;26.62;56.73
11936;BME280;6027;48.576;9.180;2022-07-23T13:31:06;97043.72;;;26.66;55.94
11936;BME280;6027;48.576;9.180;2022-07-23T13:33:31;97036.91;;;26.74;56.93
11936;BME280;6027;48.576;9.180;2022-07-23T13:35:57;97037.41;;;26.76;58.31
11936;BME280;6027;48.576;9.180;2022-07-23T13:38:22;97039.81;;;26.82;57.23
11936;BME280;6027;48.576;9.180;2022-07-23T13:40:50;97038.44;;;26.90;54.54
11936;BME280;6027;48.576;9.180;2022-07-23T13:43:18;97041.16;;;26.85;56.29